TAF - Interpretação

O que fiz aqui foi apresentar apenas o que de mais comum encontramos no dia-a-dia quando consultamos a mensagem TAF. Para aprofundar mais sua pesquisa, consulte o FCA 105-2 - “Código Meteorológico TAF” (aqui).

Outra legislação complementar também importante é a FCA 105-3 - "Códigos Meteorológicos - METAR e SPECI" (aqui).

"Terminal Aerodrome Forecast" - Previsão Terminal de Aeródromo, confeccionada a cada 6 horas por um CMA-1. As previsões para os aeródromos internacionais tem validade de 24 horas e os domésticos 12 horas.

Exemplo: TAF SBPA 130530Z 1312/1412 31015G27KT 8000 SHRA BKN025 TX28/1318Z TN20/1409Z BECMG 1400/1402 4000 BKN010 TEMPO 1406/1408 TSRA

DECODIFICAÇÃO:

TAF – identificador do código.

SBPA – indicador de localidade – Aeródromo de Porto Alegre.

130530Z – data e hora de confecção da previsão. Dia 13 às 0530 UTC.

1312/1412 – validade da previsão (período do TAF) – identifica o dia e hora de início e o dia e hora do final da validade da previsão. No caso, das 12 UTC do dia 13 às 12 UTC do dia 14.

31015G27KT – indica o vento previsto – vento de 310° com 15 nós, com rajadas (G) de 27 nós.

8000 – indica a visibilidade horizontal prevista – 8000 metros de visibilidade.

SHRA – indica o tempo presente previsto - pancada de chuva

BKN025 – indica o grupo de nebulosidade prevista. Nublado a 2500 pés.

Lembrando que:

1 a 2 oitavos serão informados como FEW (Few - poucas);

3 a 4 oitavos serão informados como SCT (Scattered - esparsas);

5 a 7 oitavos serão informados como BKN (Broken - nublado); e

8 oitavos será informado como OVC (Overcast - encoberto).

Um dado importante: só teremos definição de TETO quando tivermos informação de BKN ou OVC.

De acordo com a legislação da FAB, a ICA105-8 (clique aqui), FEW e SCT são definidos como "NÃO TETO" e BKN e OVC como "TETO".

TX28/1318Z TN20/1409Z – temperaturas máxima (TX) e mínima (TN) previstas e respectivos horários – temperatura de 28ºC prevista para as 1800UTC do dia 13 e temperatura de 20ºC prevista para as 0900UTC do dia 14.

TEMPO 1406/1408 TSRA – Previsão de mudança temporária entre 06Z e 08Z, do dia 14, com as seguintes condições: TROVOADAS COM CHUVA. Após decorrido o período de horário temporário, se não houver mais informações adicionais, as condições meteorológicas voltam às condições anteriores à esta previsão.

BECMG - Vamos estudar este conceito com alguns exemplos:

TAF SBPA 130530Z 1312/1412 31015G27KT 8000 SHRA BKN025 TX28/1318Z TN20/1409Z BECMG 1400/1402 4000 BKN010

Na mensagem acima, as condições previstas para trecho da mensagem sublinada vai do dia 14, das 0000Z às 0200Z.

Concorda??? É isso mesmo? Você tem certeza mesmo? Essa mensagem tem pegadinha...

Pois bem, aqui cabe uma pequena explicação: preste bastante atenção, pois a cobertura é, na realidade das 0200Z às 1200Z!!! Tem muita gente que não enxerga este período. Entenda: o termo "BECMG 1400/1402" quer dizer assim:

A partir de 1400, que significa "00Z do dia 14", vai começar uma modificação meteorológica e somente APÓS 1402 (que significa 02Z do dia 14) é que vai prevalecer as seguintes modificações:

a) visibilidade – 4.000 metros; e

b) nuvens - 5 a 7 oitavos com base a 1.000 pés.

Como não tem mais outra informação depois do "BECMG" neste TAF, estas condições vão permanecer até o final do período, que corresponde ao trecho da mensagem "130530Z 1312/1412", ou seja, o final do período será às 1412 (12Z do dia 14). Daí a assertiva de que a cobertura do BECMG vai das 0200Z às 1200Z.

Agora vamos supor que a mensagem fosse essa:

TAF SBPA 130530Z 1312/1412 31015G27KT 8000 SHRA BKN025 TX28/1318Z TN20/1409Z BECMG 1400/1402 4000 BKN010 PROB40 1406/1412 TSRA

Aqui então o período de validade do BECMG será das 1402 (02Z do dia 14) até às 1412 (12Z do dia 14). Repare que apesar de existir uma mensagem PROB na sequência, ela não modifica as previsões de "4000 BKN010", então presume-se que as informações do BECMG terão validade até o final do perído, ou seja, às 12Z do dia 14.

Se ainda assim persistir a dúvida, me escreva que a gente debate o assunto (koch81@gmail.com).

TAF SBCT 101030Z 1012/1112 24003KT 9999 SCT015 TX28/1018Z TN20/1109Z TEMPO 1018/1024 4000 +SHRA BKN012

Este TAF indica a ocorrência temporária de redução na visibilidade para 4.000 metros, pancada de chuva forte e aumento de nebulosidade com redução na altura, entre 1800 e 2400 UTC, do dia 10.

TAF SBCT 101030Z 1012/1112 24003KT 9999 SCT015 TX28/1018Z TN20/1109Z TEMPO 1018/1024 4000 +TSRA BKN010CB PROB40 TEMPO 1020/1022 TSRA

Neste exemplo, o TAF mostra que haverá uma redução na visibilidade para 4.000 metros, devido à ocorrência de trovoada com chuva forte, havendo um aumento de nebulosidade, porém com decréscimo na altura da base e ocorrência de nuvens CB, no período de 1800 a 2400 UTC do dia 10, existindo uma probabilidade de 40% de ocorrência de trovoada com chuva moderada, no período de 2000 a 2200 UTC do dia 10.

FM (From) – a partir de determinado horário.

PROB – probabilidade de 30% ou 40% (só existem estas duas porcentagem) de ocorrer a mudança em um período de tempo.

Tem uma geração de pilotos que acredita (erradamente) que quando aparece PROB30, esta informação quer dizer que a previsão tem valor de aproximadamente 60% e que o PROB40 representaria um valor de aproximadamente 80/90%. Este absurdo deve ser combatido!!!!

Aliás, quando numa interpretação das condições meteorológicas o avaliador entender que ela tem uma chance maior de 40% de ocorrer, esta informação deixa de ser "PROB" e passa a ser uma previsão normal.

Então, reforçando, PROB30 = 30% e PROB 40 = 40% é muito simples assim, sem invenção!!!

Sergio Koch - TCel AV R1

Veja este link (aqui) com várias abreviaturas usadas na confecção das mensagens METAR e TAF aqui no Brasil e no mundo.